Time;durP1;ratioP1;P1;durP2;ratioP2;P2;SDS_P1;SDS_P2;PMS_P1;PMS_P2;Temp;Humidity;BMP_temperature;BMP_pressure;BME280_temperature;BME280_humidity;BME280_pressure;Samples;Min_cycle;Max_cycle;Signal;HPM_P1;HPM_P2
2022/07/14 00:03:25;;;;;;;2.42;1.70;;;27.30;36.10;;;25.58;36.97;101265.78;12240501;19;20015;-79
2022/07/14 00:07:27;;;;;;;3.38;1.52;;;27.30;36.10;;;25.59;36.95;101279.97;12240795;19;20022;-78
2022/07/14 00:11:28;;;;;;;1.38;1.30;;;27.20;36.10;;;25.21;37.22;101236.91;12239547;19;20019;-78
2022/07/14 00:15:31;;;;;;;1.55;1.27;;;27.20;36.20;;;25.37;37.44;101265.47;12240679;19;20028;-78
2022/07/14 00:19:32;;;;;;;1.65;1.55;;;27.20;36.20;;;25.35;37.19;101275.50;12239736;19;20035;-78
2022/07/14 00:23:34;;;;;;;1.90;1.23;;;27.00;36.30;;;25.37;37.41;101286.84;12239415;19;20015;-78
2022/07/14 00:27:36;;;;;;;1.23;1.10;;;26.90;36.40;;;25.32;37.52;101276.66;12240129;19;20034;-78
2022/07/14 00:31:38;;;;;;;1.52;1.42;;;26.90;36.50;;;25.30;37.39;101275.16;12237485;19;20031;-78
2022/07/14 00:35:39;;;;;;;4.20;1.63;;;26.80;36.50;;;25.29;37.69;101273.50;12239838;19;20015;-78
2022/07/14 00:39:57;;;;;;;1.90;1.55;;;26.80;36.60;;;25.20;37.47;101267.31;12234171;19;20031;-78
2022/07/14 00:43:59;;;;;;;1.35;1.20;;;26.80;36.60;;;24.86;37.80;101238.88;12239508;19;20031;-78
2022/07/14 00:48:01;;;;;;;2.25;1.50;;;26.70;36.60;;;24.84;38.18;101256.06;12239779;19;20023;-78
2022/07/14 00:52:03;;;;;;;1.67;1.40;;;26.60;36.70;;;24.75;38.27;101246.38;12232991;19;20031;-78
2022/07/14 00:56:06;;;;;;;1.30;1.20;;;26.60;36.80;;;24.87;38.11;101288.66;12238575;19;20014;-78
2022/07/14 01:00:13;;;;;;;1.60;1.25;;;26.40;36.80;;;24.53;38.36;101251.34;12236948;19;20037;-78
2022/07/14 01:04:15;;;;;;;1.90;1.50;;;26.40;37.00;;;24.71;38.27;101288.63;12239219;19;20011;-78
2022/07/14 01:08:17;;;;;;;1.30;1.20;;;26.30;37.00;;;24.58;38.20;101277.56;12232311;19;20046;-78
2022/07/14 01:12:19;;;;;;;2.03;1.65;;;26.20;37.10;;;24.63;38.34;101305.44;12235819;19;20329;-78
2022/07/14 01:16:20;;;;;;;2.00;1.55;;;26.20;37.10;;;24.44;38.30;101276.34;12239306;19;20082;-77
2022/07/14 01:20:26;;;;;;;3.53;1.67;;;26.20;37.30;;;24.46;38.63;101290.34;12237529;19;20026;-78
2022/07/14 01:24:28;;;;;;;1.48;1.27;;;26.10;37.30;;;24.43;38.88;101296.81;12238540;19;20025;-78
2022/07/14 01:28:29;;;;;;;2.22;1.60;;;26.10;37.30;;;24.31;38.56;101292.78;12230879;19;20064;-78
2022/07/14 01:32:31;;;;;;;1.38;1.25;;;26.00;37.30;;;24.24;38.74;101300.59;12231206;19;20082;-78
2022/07/14 01:36:33;;;;;;;1.73;1.63;;;25.90;37.40;;;24.06;39.24;101281.16;12235277;19;20483;-78
2022/07/14 01:40:35;;;;;;;1.95;1.60;;;25.90;37.50;;;23.99;38.97;101290.81;12231964;19;20025;-78
2022/07/14 01:44:37;;;;;;;3.13;1.30;;;25.80;37.50;;;24.02;39.13;101293.97;12236749;19;20019;-78
2022/07/14 01:48:39;;;;;;;2.13;1.60;;;25.80;37.60;;;24.05;39.31;101298.16;12237004;19;20016;-79
2022/07/14 01:52:41;;;;;;;1.65;1.55;;;25.70;37.70;;;24.05;39.61;101311.50;12244238;19;20015;-78
2022/07/14 01:56:43;;;;;;;1.42;1.33;;;25.70;37.90;;;23.88;39.68;101291.91;12249868;19;20008;-78
2022/07/14 02:01:39;;;;;;;1.35;1.25;;;25.70;37.90;;;23.80;39.28;101303.38;12244695;19;20080;-78
2022/07/14 02:05:10;;;;;;;1.63;1.35;;;25.50;37.80;;;23.80;39.53;101322.03;12249146;19;20025;-78
2022/07/14 02:09:12;;;;;;;1.48;1.13;;;25.40;37.60;;;23.63;39.59;101309.56;12246543;19;20031;-79
2022/07/14 02:13:14;;;;;;;1.15;1.05;;;25.30;37.50;;;23.60;39.59;101320.50;12245666;19;20112;-78
2022/07/14 02:17:16;;;;;;;1.10;1.00;;;25.30;37.60;;;23.47;39.78;101304.09;12248778;19;20078;-78
2022/07/14 02:21:18;;;;;;;3.35;1.35;;;25.40;37.80;;;23.55;39.47;101322.84;12245145;19;20025;-78
2022/07/14 02:25:19;;;;;;;1.20;1.10;;;25.20;37.80;;;23.55;39.60;101334.31;12246635;19;20085;-78
2022/07/14 02:29:21;;;;;;;1.63;1.15;;;25.10;37.80;;;23.37;39.64;101323.66;12245751;19;20014;-78
2022/07/14 02:33:23;;;;;;;1.67;1.10;;;25.10;37.80;;;23.30;39.93;101335.94;12243982;19;20019;-78
2022/07/14 02:37:26;;;;;;;1.52;1.10;;;25.00;37.80;;;23.09;40.18;101317.59;12245373;19;20475;-78
2022/07/14 02:41:28;;;;;;;1.35;1.13;;;24.90;37.90;;;23.09;40.26;101332.75;12242078;19;20031;-78
2022/07/14 02:45:29;;;;;;;1.67;0.85;;;24.90;38.00;;;22.78;39.81;101298.44;12245911;19;20053;-78
2022/07/14 02:49:31;;;;;;;0.80;0.77;;;24.80;38.00;;;22.96;40.38;101347.28;12245398;19;20014;-78
2022/07/14 02:53:34;;;;;;;1.08;0.98;;;24.70;38.00;;;22.82;40.40;101346.91;12241845;19;20035;-78
2022/07/14 02:57:36;;;;;;;1.27;0.90;;;24.60;38.00;;;22.50;40.15;101311.78;12246688;19;20021;-78
2022/07/14 03:01:40;;;;;;;1.15;0.88;;;24.70;38.20;;;22.40;40.15;101313.63;12238309;19;20006;-78
2022/07/14 03:05:44;;;;;;;0.98;0.82;;;24.40;38.20;;;22.50;40.65;101365.00;12244527;19;20018;-78
2022/07/14 03:09:45;;;;;;;4.03;1.15;;;24.40;38.30;;;22.45;40.55;101366.44;12241832;19;20030;-79
2022/07/14 03:13:47;;;;;;;1.40;0.93;;;24.30;38.40;;;22.34;40.94;101361.31;12240307;19;20036;-78
2022/07/14 03:17:52;;;;;;;1.58;1.00;;;24.20;38.60;;;22.33;41.09;101373.75;12242763;19;20010;-78
2022/07/14 03:21:54;;;;;;;0.98;0.90;;;24.10;38.60;;;22.24;40.77;101375.47;12240173;19;20038;-78
2022/07/14 03:25:56;;;;;;;2.58;1.25;;;24.00;38.70;;;22.22;40.85;101371.28;12242864;19;20480;-78
2022/07/14 03:29:58;;;;;;;2.85;1.38;;;24.00;39.00;;;22.15;41.37;101373.66;12235865;19;20018;-78
2022/07/14 03:34:00;;;;;;;2.25;0.85;;;23.90;39.00;;;22.03;41.00;101367.63;12238937;19;20015;-78
2022/07/14 03:38:04;;;;;;;1.48;1.05;;;23.90;39.20;;;22.09;41.49;101388.38;12240647;19;20464;-78
2022/07/14 03:42:10;;;;;;;1.13;0.95;;;23.80;39.20;;;22.05;41.27;101392.28;12240994;19;20021;-78
2022/07/14 03:46:13;;;;;;;1.30;0.82;;;23.80;39.30;;;21.87;41.34;101392.19;12241533;19;20022;-78
2022/07/14 03:50:20;;;;;;;3.55;0.93;;;23.70;39.30;;;21.75;41.51;101390.66;12240614;19;20035;-78
2022/07/14 03:54:22;;;;;;;2.30;1.30;;;23.70;39.50;;;21.76;42.03;101412.75;12238543;19;20078;-78
2022/07/14 03:58:27;;;;;;;1.50;1.00;;;23.50;39.60;;;21.60;41.67;101392.91;12241370;19;20418;-78
2022/07/14 04:02:29;;;;;;;2.38;1.15;;;23.40;39.80;;;21.52;42.16;101398.09;12239002;19;20022;-78
2022/07/14 04:06:32;;;;;;;2.78;1.02;;;23.40;39.90;;;21.53;42.31;101413.03;12239769;19;20417;-78
2022/07/14 04:10:36;;;;;;;4.35;1.30;;;23.30;40.00;;;21.38;42.29;101401.13;12239217;19;20364;-78
2022/07/14 04:14:37;;;;;;;2.72;1.10;;;23.20;40.00;;;21.35;42.55;101409.34;12235679;19;20374;-78
2022/07/14 04:18:39;;;;;;;2.60;1.48;;;23.30;40.30;;;21.30;42.49;101411.59;12230235;19;20530;-78
2022/07/14 04:22:41;;;;;;;2.33;1.02;;;23.10;40.30;;;21.29;42.36;101426.69;12236200;19;20045;-77
2022/07/14 04:26:46;;;;;;;3.38;1.00;;;23.00;40.40;;;21.29;42.89;101412.56;12238923;19;20028;-78
2022/07/14 04:30:48;;;;;;;2.10;1.10;;;23.20;40.70;;;21.00;42.82;101379.66;12234757;19;20066;-78
2022/07/14 04:34:50;;;;;;;1.83;0.90;;;23.00;40.70;;;21.24;42.92;101420.13;12232180;19;20365;-78
2022/07/14 04:38:53;;;;;;;2.63;0.95;;;22.90;40.50;;;21.23;42.84;101435.22;12217835;19;20018;-79
2022/07/14 04:42:56;;;;;;;2.00;0.95;;;22.90;40.40;;;21.10;43.01;101435.47;12231454;19;20022;-79
2022/07/14 04:46:57;;;;;;;3.80;1.25;;;22.90;40.40;;;21.09;42.60;101439.09;12230556;19;20023;-79
2022/07/14 04:55:20;;;;;;;3.05;1.10;;;22.70;40.20;;;20.99;43.02;101430.25;12217943;19;20043;-78
2022/07/14 04:59:57;;;;;;;3.55;0.90;;;22.80;40.30;;;20.97;42.73;101450.78;12229017;19;20561;-78
2022/07/14 05:03:58;;;;;;;1.83;0.80;;;22.70;40.20;;;20.74;42.98;101421.78;12231994;19;20006;-79
2022/07/14 05:08:01;;;;;;;4.88;1.00;;;22.60;40.20;;;20.87;42.81;101433.97;12232458;19;20042;-78
2022/07/14 05:12:13;;;;;;;4.68;0.98;;;22.60;40.40;;;20.89;42.89;101434.69;12231137;19;20014;-78
2022/07/14 05:16:15;;;;;;;4.15;1.05;;;22.60;40.50;;;20.86;42.82;101419.88;12231067;19;20014;-78
2022/07/14 05:20:18;;;;;;;5.40;1.42;;;22.60;40.60;;;20.85;42.99;101412.06;12222839;19;20023;-78
2022/07/14 05:24:21;;;;;;;4.18;1.00;;;22.60;40.40;;;20.94;43.28;101421.84;12223967;19;20492;-79
2022/07/14 05:28:23;;;;;;;1.63;1.00;;;22.80;40.50;;;20.90;43.09;101425.75;12236657;19;20039;-79
2022/07/14 05:32:29;;;;;;;5.40;1.30;;;22.70;40.50;;;20.89;43.10;101427.56;12230094;19;20707;-79
2022/07/14 05:36:31;;;;;;;4.93;1.20;;;22.60;40.50;;;20.91;43.34;101438.06;12233901;19;20035;-79
2022/07/14 05:40:35;;;;;;;4.80;1.40;;;22.60;40.60;;;20.96;43.38;101438.50;12232775;19;20434;-79
2022/07/14 05:44:36;;;;;;;4.90;1.23;;;22.70;40.70;;;20.94;43.29;101422.69;12236426;19;20049;-79
2022/07/14 05:48:40;;;;;;;2.72;0.85;;;22.80;40.70;;;21.17;43.32;101443.72;12233200;19;20046;-80
2022/07/14 05:52:43;;;;;;;6.72;1.33;;;23.10;40.70;;;21.10;43.04;101438.13;12227071;19;20015;-79
2022/07/14 05:56:45;;;;;;;3.88;1.20;;;23.00;40.70;;;21.20;43.24;101449.63;12232911;19;20018;-78
2022/07/14 06:00:46;;;;;;;5.60;1.00;;;22.90;40.70;;;21.21;43.33;101445.97;12233666;19;20007;-78
2022/07/14 06:04:48;;;;;;;1.65;0.98;;;22.90;40.70;;;21.36;43.65;101448.22;12241410;19;20025;-78
2022/07/14 06:08:51;;;;;;;4.18;1.27;;;22.90;40.90;;;21.41;43.12;101448.69;12241508;19;20021;-78
2022/07/14 06:12:52;;;;;;;3.10;1.08;;;23.00;40.80;;;21.63;43.25;101461.75;12237613;19;20382;-78
2022/07/14 06:16:57;;;;;;;1.88;0.95;;;23.10;40.60;;;21.75;43.09;101435.03;12243232;19;20002;-77
2022/07/14 06:21:00;;;;;;;7.70;1.20;;;23.20;40.90;;;21.91;43.08;101451.25;12241034;19;20018;-77
2022/07/14 06:25:03;;;;;;;6.07;1.38;;;23.40;40.70;;;21.96;42.85;101451.66;12242869;19;20066;-78
2022/07/14 06:29:06;;;;;;;7.53;1.85;;;23.50;40.50;;;22.10;43.07;101467.19;12231024;19;20409;-78
2022/07/14 06:33:09;;;;;;;2.00;0.88;;;23.50;40.20;;;22.09;42.93;101454.88;12239382;19;20025;-78
2022/07/14 06:37:12;;;;;;;3.80;1.15;;;23.60;40.10;;;21.99;43.24;101437.25;12240413;19;20019;-78
2022/07/14 06:41:13;;;;;;;2.63;1.10;;;23.70;40.00;;;21.97;42.82;101437.38;12238158;19;20023;-78
2022/07/14 06:45:19;;;;;;;4.60;1.40;;;23.70;40.00;;;22.03;43.04;101452.75;12241101;19;20022;-80
2022/07/14 06:49:22;;;;;;;4.93;1.58;;;23.80;39.80;;;22.03;42.73;101462.56;12240346;19;20023;-78
2022/07/14 06:53:24;;;;;;;2.78;1.02;;;23.70;39.80;;;21.92;42.91;101439.63;12235828;19;20018;-79
2022/07/14 06:57:26;;;;;;;2.50;1.20;;;23.90;39.90;;;22.10;43.23;101474.31;12237678;19;20014;-78
2022/07/14 07:01:27;;;;;;;7.53;1.25;;;23.70;39.70;;;22.08;42.78;101468.31;12235225;19;20021;-78
2022/07/14 07:09:49;;;;;;;4.43;1.25;;;23.70;39.70;;;21.99;42.94;101454.03;12238228;19;20014;-78
2022/07/14 07:13:51;;;;;;;3.95;1.10;;;23.70;39.50;;;22.09;42.73;101464.69;12235895;19;20007;-77
2022/07/14 07:17:52;;;;;;;3.53;1.25;;;23.70;39.50;;;22.05;42.66;101453.47;12238071;19;20018;-78
2022/07/14 07:21:54;;;;;;;3.88;0.90;;;23.70;39.30;;;22.09;42.63;101457.53;12234527;19;20018;-77
2022/07/14 07:25:56;;;;;;;2.88;0.80;;;24.00;39.30;;;22.12;42.67;101452.91;12231469;19;20054;-77
2022/07/14 07:30:00;;;;;;;3.13;0.88;;;23.80;39.00;;;22.10;42.48;101427.28;12228951;19;20382;-78
2022/07/14 07:34:02;;;;;;;3.15;1.58;;;23.80;38.80;;;22.22;42.14;101430.63;12226736;19;20082;-78
2022/07/14 07:38:04;;;;;;;2.92;1.25;;;24.20;39.00;;;22.45;42.06;101438.31;12227414;19;20022;-78
2022/07/14 07:42:06;;;;;;;5.50;0.85;;;24.00;38.90;;;22.65;42.14;101426.59;12226542;19;20014;-78
2022/07/14 07:46:08;;;;;;;2.72;0.90;;;24.10;38.90;;;22.85;41.88;101408.72;12229542;19;20086;-78
2022/07/14 07:50:10;;;;;;;3.35;0.75;;;24.30;38.70;;;23.01;41.82;101409.91;12221428;19;20792;-78
2022/07/14 07:54:12;;;;;;;2.17;1.30;;;24.50;38.60;;;22.97;41.79;101396.88;12225989;19;20131;-78
2022/07/14 07:58:14;;;;;;;3.53;0.85;;;24.60;38.20;;;23.10;41.70;101409.03;12227923;19;20018;-78
2022/07/14 08:02:17;;;;;;;2.00;0.98;;;24.60;37.90;;;23.26;41.28;101424.34;12224785;19;20090;-78
2022/07/14 08:06:18;;;;;;;2.47;0.90;;;24.70;37.90;;;23.22;41.45;101386.50;12227465;19;20018;-78
2022/07/14 08:10:21;;;;;;;3.80;1.08;;;24.80;37.70;;;23.34;41.03;101395.94;12225850;19;20194;-78
2022/07/14 08:18:43;;;;;;;4.53;1.25;;;25.00;37.20;;;23.09;40.89;101320.28;12228504;19;20011;-78
2022/07/14 08:22:45;;;;;;;1.83;0.80;;;25.20;37.30;;;23.49;40.73;101380.25;12226049;19;20038;-78
2022/07/14 08:26:47;;;;;;;2.75;0.80;;;25.20;37.20;;;23.71;40.82;101403.00;12226727;19;20492;-78
2022/07/14 08:30:49;;;;;;;6.03;1.08;;;25.30;37.30;;;23.82;40.31;101397.41;12226675;19;20014;-78
2022/07/14 08:34:50;;;;;;;2.60;1.08;;;25.30;36.90;;;23.95;40.54;101396.16;12224411;19;20018;-78
2022/07/14 08:38:52;;;;;;;2.95;0.70;;;25.60;37.30;;;24.04;40.04;101376.56;12226443;19;20103;-78
2022/07/14 08:42:56;;;;;;;2.55;1.13;;;25.60;36.80;;;24.31;39.88;101396.91;12231535;19;20011;-78
2022/07/14 08:46:57;;;;;;;1.77;0.80;;;25.70;36.40;;;24.32;39.77;101387.06;12234999;19;20015;-78
2022/07/14 08:51:00;;;;;;;2.90;0.73;;;25.80;36.30;;;24.39;39.29;101385.44;12231680;19;20027;-78
2022/07/14 08:55:01;;;;;;;3.47;0.90;;;26.00;36.30;;;24.53;39.33;101376.03;12233813;19;20018;-78
2022/07/14 08:59:04;;;;;;;2.03;0.98;;;26.10;35.90;;;24.44;39.29;101356.47;12233559;19;20022;-78
2022/07/14 09:03:05;;;;;;;2.97;1.02;;;26.10;35.90;;;24.60;38.95;101359.19;12241477;19;20490;-78
2022/07/14 09:07:07;;;;;;;3.60;1.10;;;26.20;35.90;;;24.59;39.01;101337.97;12245494;19;20019;-78
2022/07/14 09:11:17;;;;;;;2.28;0.60;;;26.20;35.90;;;24.80;38.61;101341.06;12244866;19;20402;-78
2022/07/14 09:20:10;;;;;;;2.38;0.75;;;26.40;35.30;;;25.08;38.62;101341.59;12231794;19;20011;-78
2022/07/14 09:24:16;;;;;;;1.23;0.65;;;26.50;35.40;;;25.19;38.09;101339.66;12243574;19;20023;-78
2022/07/14 09:28:25;;;;;;;2.97;0.85;;;26.70;35.40;;;25.30;37.97;101352.69;12240435;19;20014;-78
2022/07/14 09:32:56;;;;;;;2.78;0.80;;;26.80;34.80;;;25.41;37.73;101352.38;12239699;19;20030;-79
2022/07/14 09:37:14;;;;;;;3.83;0.77;;;26.90;34.60;;;25.39;37.13;101335.66;12244277;19;20014;-81
2022/07/14 09:41:16;;;;;;;2.40;1.00;;;26.90;34.00;;;25.29;37.31;101318.94;12240918;19;20027;-79
2022/07/14 09:45:21;;;;;;;2.58;0.88;;;27.10;34.30;;;25.36;37.29;101318.13;12242745;19;20011;-79
2022/07/14 09:49:30;;;;;;;2.63;0.80;;;27.00;34.40;;;25.38;36.85;101307.22;12244014;19;20090;-80
2022/07/14 09:53:34;;;;;;;2.00;0.80;;;27.00;34.20;;;25.59;37.00;101331.63;12238798;19;20033;-78
2022/07/14 09:57:38;;;;;;;2.80;0.90;;;27.20;34.20;;;25.56;36.55;101305.22;12243016;19;20019;-78
2022/07/14 10:01:40;;;;;;;2.33;0.63;;;27.10;33.80;;;25.68;37.10;101323.59;12238656;19;20011;-78
2022/07/14 10:05:42;;;;;;;2.67;0.60;;;27.20;34.20;;;25.85;36.41;101314.59;12239034;19;20020;-78
2022/07/14 10:10:09;;;;;;;1.27;0.57;;;27.30;33.90;;;26.01;36.51;101298.50;12239988;19;20031;-78
2022/07/14 10:14:12;;;;;;;0.93;0.60;;;27.40;34.10;;;26.15;36.38;101280.03;12236948;19;20511;-78
2022/07/14 10:18:14;;;;;;;0.93;0.70;;;27.70;34.00;;;26.39;36.54;101290.63;12241672;19;21399;-79
2022/07/14 10:22:18;;;;;;;2.40;0.60;;;27.80;33.90;;;26.59;35.83;101306.31;12239592;19;20019;-78
2022/07/14 10:26:20;;;;;;;0.53;0.40;;;27.90;33.30;;;26.48;35.74;101278.88;12243241;19;20483;-78
2022/07/14 10:30:43;;;;;;;6.55;0.93;;;28.10;33.20;;;26.68;35.16;101286.47;12238748;19;20081;-78
2022/07/14 10:35:07;;;;;;;1.23;0.70;;;28.10;32.70;;;26.72;35.20;101297.72;12236323;19;20014;-79
2022/07/14 10:39:38;;;;;;;0.60;0.52;;;28.20;32.30;;;26.73;34.74;101297.50;12238787;19;20365;-81
2022/07/14 10:43:41;;;;;;;2.60;0.60;;;28.20;32.20;;;26.65;34.92;101294.88;12240377;19;20014;-78
2022/07/14 10:47:51;;;;;;;1.65;0.60;;;28.20;32.40;;;26.65;34.20;101305.59;12239499;19;20010;-77
2022/07/14 10:51:53;;;;;;;1.70;0.73;;;28.20;31.50;;;26.41;34.26;101261.00;12236636;19;20026;-77
2022/07/14 10:55:55;;;;;;;0.73;0.50;;;28.20;31.70;;;26.51;34.35;101280.41;12242041;19;20014;-78
2022/07/14 10:59:57;;;;;;;1.45;0.50;;;28.20;31.80;;;26.55;33.78;101275.53;12241214;19;20018;-76
2022/07/14 11:04:00;;;;;;;1.58;0.40;;;28.20;31.60;;;26.58;33.76;101273.34;12239377;19;20014;-79
2022/07/14 11:08:09;;;;;;;1.98;0.50;;;28.10;31.50;;;26.62;33.68;101271.94;12238477;19;20383;-78
2022/07/14 11:12:14;;;;;;;0.50;0.50;;;28.20;31.60;;;26.69;33.65;101264.88;12236924;19;20354;-78
2022/07/14 11:16:15;;;;;;;1.60;0.60;;;28.20;31.60;;;26.54;33.52;101222.94;12237702;19;20018;-77
2022/07/14 11:20:59;;;;;;;1.05;0.50;;;28.30;31.60;;;26.91;33.38;101265.06;12238286;19;20010;-77
2022/07/14 11:25:03;;;;;;;1.45;0.70;;;28.30;31.40;;;26.85;32.88;101258.59;12236881;19;20097;-80
2022/07/14 11:29:09;;;;;;;0.70;0.50;;;28.40;31.10;;;26.90;32.71;101250.84;12238292;19;20007;-78
2022/07/14 11:33:11;;;;;;;0.90;0.50;;;28.40;31.30;;;27.12;33.05;101264.41;12235278;19;20018;-78
2022/07/14 11:37:16;;;;;;;0.73;0.50;;;28.50;31.30;;;27.13;32.74;101239.25;12238492;19;20010;-77
2022/07/14 11:41:41;;;;;;;0.63;0.50;;;28.60;31.00;;;27.16;32.40;101233.53;12235509;19;20014;-80
2022/07/14 11:45:54;;;;;;;1.85;0.50;;;28.60;30.70;;;27.26;32.34;101238.69;12237209;19;20006;-77
2022/07/14 11:50:07;;;;;;;0.80;0.47;;;28.70;30.80;;;27.32;32.36;101233.41;12234886;19;20018;-77
2022/07/14 11:54:10;;;;;;;1.42;0.70;;;28.80;30.90;;;27.13;32.65;101189.13;12232960;19;20400;-78
2022/07/14 11:58:13;;;;;;;0.80;0.40;;;28.80;31.00;;;27.33;31.89;101216.31;12236113;19;20010;-77
2022/07/14 12:02:20;;;;;;;1.60;0.68;;;28.90;30.50;;;27.33;31.51;101212.81;12232926;19;20077;-77
2022/07/14 12:06:24;;;;;;;1.75;0.68;;;28.90;30.30;;;27.43;32.01;101204.47;12234297;19;20018;-78
2022/07/14 12:10:41;;;;;;;1.25;0.75;;;28.90;30.40;;;27.41;31.89;101185.03;12233490;19;20627;-77
2022/07/14 12:14:52;;;;;;;1.42;0.50;;;28.90;30.60;;;27.55;31.31;101179.69;12220872;19;20011;-77
2022/07/14 12:18:55;;;;;;;0.80;0.47;;;29.00;30.30;;;27.68;31.65;101195.16;12226419;19;20018;-78
2022/07/14 12:22:57;;;;;;;1.20;0.50;;;29.10;30.90;;;27.73;31.20;101192.75;12222324;19;20077;-78
2022/07/14 12:27:06;;;;;;;0.63;0.40;;;29.20;30.30;;;27.66;31.09;101185.63;12226085;19;20110;-78
2022/07/14 12:31:08;;;;;;;2.35;0.70;;;29.20;30.00;;;27.38;31.14;101146.00;12224172;19;20018;-78
2022/07/14 12:35:10;;;;;;;1.60;0.80;;;29.10;29.90;;;27.47;30.83;101165.53;12222169;19;20022;-77
2022/07/14 12:39:13;;;;;;;0.35;0.30;;;29.10;30.00;;;27.63;30.87;101165.34;12225683;19;20014;-77
2022/07/14 12:43:14;;;;;;;2.50;0.47;;;29.10;29.90;;;27.78;30.75;101168.00;12225166;19;20113;-77
2022/07/14 12:47:16;;;;;;;1.52;0.50;;;29.20;29.80;;;27.84;30.61;101144.97;12226347;19;20023;-78
2022/07/14 12:51:33;;;;;;;2.20;0.60;;;29.30;29.80;;;27.99;30.12;101160.03;12222548;19;20018;-77
2022/07/14 12:55:44;;;;;;;0.50;0.43;;;29.30;29.70;;;27.94;30.18;101142.84;12225837;19;20011;-78
2022/07/14 12:59:47;;;;;;;0.60;0.57;;;29.40;29.80;;;28.00;30.57;101137.56;12224062;19;20014;-77
2022/07/14 13:04:05;;;;;;;0.50;0.40;;;29.40;29.80;;;28.04;29.94;101148.75;12224870;19;20018;-78
2022/07/14 13:08:36;;;;;;;0.77;0.50;;;29.50;29.70;;;28.13;29.72;101149.44;12223360;19;20042;-78
2022/07/14 13:12:47;;;;;;;1.83;0.73;;;29.50;29.70;;;28.09;29.87;101148.19;12220739;19;20046;-78
2022/07/14 13:16:52;;;;;;;1.05;0.40;;;29.50;29.80;;;28.16;30.15;101138.31;12228198;19;20618;-77
2022/07/14 13:20:54;;;;;;;1.88;0.57;;;29.60;29.90;;;28.30;30.02;101150.03;12224427;19;20047;-79
2022/07/14 13:24:55;;;;;;;1.88;0.68;;;29.60;29.60;;;28.24;29.63;101141.72;12223740;19;20380;-77
2022/07/14 13:28:57;;;;;;;0.65;0.32;;;29.70;29.40;;;28.33;29.53;101160.44;12224346;19;20419;-78
2022/07/14 13:32:59;;;;;;;0.77;0.40;;;29.70;29.50;;;28.28;29.35;101150.25;12222933;19;20863;-78
2022/07/14 13:37:02;;;;;;;3.50;0.60;;;29.70;29.10;;;28.22;29.04;101141.09;12232764;19;20020;-79
2022/07/14 13:41:09;;;;;;;0.93;0.47;;;29.70;29.10;;;28.31;29.35;101146.34;12199214;19;20543;-77
2022/07/14 13:45:15;;;;;;;1.73;0.57;;;29.70;29.00;;;28.27;28.92;101135.13;12215256;19;20018;-78
2022/07/14 13:49:18;;;;;;;2.38;0.70;;;29.70;28.60;;;28.33;28.83;101134.38;12228878;19;20018;-79
2022/07/14 13:53:20;;;;;;;1.25;0.45;;;29.70;28.80;;;28.32;28.90;101132.72;12225936;19;20028;-79
2022/07/14 13:57:22;;;;;;;1.08;0.45;;;29.80;28.90;;;28.47;28.94;101145.31;12229807;19;20082;-78
2022/07/14 14:01:24;;;;;;;0.50;0.50;;;29.80;28.90;;;28.30;28.40;101117.81;12224951;19;20483;-79
2022/07/14 14:05:27;;;;;;;2.13;0.40;;;29.80;28.90;;;28.37;28.30;101138.34;12228747;19;20606;-79
2022/07/14 14:09:30;;;;;;;3.08;0.52;;;29.90;28.80;;;28.43;28.56;101115.28;12225183;19;20097;-78
2022/07/14 14:13:34;;;;;;;3.13;0.52;;;29.90;28.90;;;28.55;28.25;101115.59;12222262;19;20014;-77
2022/07/14 14:17:36;;;;;;;3.40;0.33;;;30.00;28.60;;;28.57;28.30;101119.75;12226842;19;21004;-78
2022/07/14 14:21:37;;;;;;;0.25;0.25;;;30.00;28.80;;;28.54;28.47;101104.00;12223829;19;20378;-78
2022/07/14 14:25:39;;;;;;;1.30;0.40;;;30.00;28.80;;;28.56;28.46;101095.75;12224630;19;20369;-78
2022/07/14 14:29:42;;;;;;;0.40;0.40;;;30.00;28.80;;;28.67;28.24;101114.88;12225227;19;20805;-78
2022/07/14 14:33:45;;;;;;;0.30;0.30;;;30.10;28.50;;;28.65;27.81;101098.13;12224584;19;20338;-77
2022/07/14 14:37:46;;;;;;;1.20;0.47;;;30.00;28.50;;;28.65;28.10;101114.25;12216599;19;20025;-77
2022/07/14 14:41:48;;;;;;;0.90;0.30;;;30.00;28.80;;;28.58;27.95;101093.72;12218288;19;20515;-77
2022/07/14 14:45:50;;;;;;;4.30;0.70;;;30.00;28.40;;;28.28;28.06;101066.16;12219551;19;20107;-77
2022/07/14 14:49:54;;;;;;;1.67;0.60;;;30.00;28.60;;;28.33;27.92;101086.03;12221218;19;20022;-78
2022/07/14 14:53:56;;;;;;;1.35;0.57;;;30.10;28.60;;;28.37;28.19;101083.78;12218647;19;20014;-78
2022/07/14 14:57:58;;;;;;;2.85;0.30;;;29.90;28.80;;;28.24;27.96;101039.66;12221870;19;20015;-77
2022/07/14 15:02:00;;;;;;;0.55;0.38;;;30.10;29.30;;;28.45;28.26;101081.00;12217278;19;20078;-77
2022/07/14 15:06:02;;;;;;;0.82;0.40;;;29.90;28.80;;;28.43;28.16;101070.44;12223400;19;20014;-77
2022/07/14 15:10:05;;;;;;;2.38;0.68;;;30.00;28.80;;;28.35;27.51;101073.22;12210999;19;21371;-77
2022/07/14 15:14:07;;;;;;;0.95;0.50;;;29.90;28.60;;;28.20;27.89;101065.25;12214793;19;20026;-78
2022/07/14 15:18:08;;;;;;;0.50;0.40;;;29.80;28.50;;;28.13;27.74;101069.72;12218974;19;20025;-77
2022/07/14 15:22:12;;;;;;;0.70;0.30;;;29.70;28.50;;;28.08;27.83;101074.00;12218384;19;20093;-78
2022/07/14 15:26:13;;;;;;;0.68;0.43;;;29.70;28.50;;;27.87;27.65;101056.00;12216745;19;20015;-77
2022/07/14 15:30:15;;;;;;;0.95;0.40;;;29.60;28.50;;;27.78;27.52;101056.09;12218960;19;20035;-79
2022/07/14 15:34:20;;;;;;;0.47;0.40;;;29.50;28.20;;;27.74;27.73;101070.94;12212186;19;20085;-77
2022/07/14 15:38:21;;;;;;;1.58;0.50;;;29.30;28.20;;;27.66;27.70;101064.84;12218960;19;20022;-78
2022/07/14 15:42:24;;;;;;;0.73;0.30;;;29.20;28.30;;;27.48;27.92;101049.16;12217834;19;20018;-77
2022/07/14 15:46:27;;;;;;;1.55;0.50;;;29.20;28.30;;;27.56;27.54;101065.16;12219607;19;20074;-78
2022/07/14 15:50:29;;;;;;;0.88;0.47;;;29.10;28.40;;;27.47;27.84;101052.88;12219679;19;20014;-78
2022/07/14 15:54:31;;;;;;;1.08;0.30;;;29.00;28.50;;;27.49;27.99;101062.41;12214363;19;20018;-78
2022/07/14 15:58:33;;;;;;;0.47;0.40;;;29.00;28.70;;;27.42;28.08;101047.22;12219341;19;20018;-77
2022/07/14 16:02:35;;;;;;;1.52;0.40;;;29.00;28.70;;;27.38;27.62;101038.69;12210421;19;20021;-77
2022/07/14 16:06:37;;;;;;;1.63;0.60;;;28.90;28.70;;;27.20;27.93;101023.03;12221788;19;20053;-78
2022/07/14 16:10:42;;;;;;;0.40;0.40;;;28.90;28.60;;;27.12;27.59;101033.81;12220709;19;20511;-79
2022/07/14 16:14:43;;;;;;;0.63;0.30;;;28.50;28.60;;;26.98;27.77;101029.28;12215969;19;20011;-78
2022/07/14 16:18:47;;;;;;;4.10;0.43;;;28.70;28.70;;;26.56;28.03;100990.56;12218492;19;20332;-77
2022/07/14 16:22:50;;;;;;;0.98;0.75;;;28.60;28.70;;;26.79;28.13;101039.56;12218898;19;20082;-79
2022/07/14 16:26:51;;;;;;;0.60;0.40;;;28.50;28.50;;;26.75;27.95;101058.84;12219226;19;20528;-78
2022/07/14 16:30:53;;;;;;;0.95;0.30;;;28.40;28.40;;;26.51;27.98;101023.22;12219333;19;20093;-78
2022/07/14 16:34:55;;;;;;;0.50;0.50;;;28.40;28.60;;;26.55;27.80;101031.75;12216009;19;20044;-77
2022/07/14 16:38:56;;;;;;;1.25;0.43;;;28.20;28.60;;;26.54;27.92;101044.28;12220559;19;20018;-77
2022/07/14 16:42:58;;;;;;;0.45;0.40;;;28.20;28.70;;;26.41;27.85;101036.00;12214615;19;20026;-77
2022/07/14 16:47:00;;;;;;;1.88;0.50;;;28.10;28.70;;;26.34;28.11;101019.84;12216877;19;20018;-77
2022/07/14 16:51:02;;;;;;;0.95;0.60;;;28.00;28.80;;;26.49;28.27;101035.94;12205812;19;20723;-77
2022/07/14 16:55:05;;;;;;;0.77;0.55;;;28.00;28.90;;;26.49;28.09;101023.41;12208046;19;20010;-77
2022/07/14 16:59:07;;;;;;;0.47;0.47;;;28.00;29.00;;;26.48;28.49;101024.41;12219867;19;20051;-76
2022/07/14 17:03:08;;;;;;;2.38;0.40;;;28.00;29.00;;;26.52;28.06;101032.09;12219397;19;20039;-77